Time;durP1;ratioP1;P1;durP2;ratioP2;P2;SDS_P1;SDS_P2;PMS_P1;PMS_P2;Temp;Humidity;BMP_temperature;BMP_pressure;BME280_temperature;BME280_humidity;BME280_pressure;Samples;Min_cycle;Max_cycle;Signal;HPM_P1;HPM_P2
2022/04/07 00:02:12;;;;;;;0.55;0.55;;;;;;;11.59;69.71;95258.38;4941445;29;20032;-81
2022/04/07 00:04:45;;;;;;;0.52;0.52;;;;;;;11.61;70.05;95258.13;4941428;29;20036;-79
2022/04/07 00:07:21;;;;;;;0.93;0.77;;;;;;;11.61;69.19;95252.91;4941442;29;20040;-79
2022/04/07 00:09:52;;;;;;;0.52;0.52;;;;;;;11.61;69.09;95247.69;4925078;29;20060;-80
2022/04/07 00:12:27;;;;;;;0.60;0.60;;;;;;;11.61;70.54;95253.72;4941206;29;20065;-78
2022/04/07 00:15:04;;;;;;;0.80;0.80;;;;;;;11.61;71.04;95242.44;4941563;29;20032;-79
2022/04/07 00:17:43;;;;;;;0.70;0.70;;;;;;;11.61;70.87;95239.84;4941375;29;20032;-81
2022/04/07 00:20:29;;;;;;;0.50;0.50;;;;;;;11.62;70.51;95244.06;4941737;29;20032;-78
2022/04/07 00:23:05;;;;;;;0.60;0.60;;;;;;;11.61;68.62;95245.06;4941441;29;20029;-81
2022/04/07 00:25:37;;;;;;;0.50;0.50;;;;;;;11.63;68.98;95243.03;4941366;29;20039;-81
2022/04/07 00:28:09;;;;;;;0.77;0.50;;;;;;;11.63;68.95;95245.63;4940869;29;20043;-81
2022/04/07 00:30:48;;;;;;;0.82;0.43;;;;;;;11.62;69.35;95249.28;4941419;29;20092;-79
2022/04/07 00:33:23;;;;;;;1.15;0.90;;;;;;;11.62;70.05;95244.06;4941361;29;20056;-81
2022/04/07 00:36:03;;;;;;;1.27;0.85;;;;;;;11.58;68.48;95238.47;4941255;29;20198;-81
2022/04/07 00:38:34;;;;;;;0.80;0.65;;;;;;;11.53;67.94;95235.72;4940611;29;20032;-82
2022/04/07 00:41:13;;;;;;;0.88;0.88;;;;;;;11.47;68.93;95242.63;4941210;29;20050;-81
2022/04/07 00:43:42;;;;;;;1.10;0.93;;;;;;;11.46;69.42;95240.25;4941412;29;20091;-80
2022/04/07 00:46:17;;;;;;;0.95;0.65;;;;;;;11.39;68.56;95244.75;4941149;29;20104;-79
2022/04/07 00:48:53;;;;;;;1.13;1.05;;;;;;;11.33;69.27;95241.22;4941081;29;20069;-79
2022/04/07 00:51:31;;;;;;;1.50;1.13;;;;;;;11.33;70.20;95233.38;4941095;29;20064;-80
2022/04/07 00:54:03;;;;;;;0.80;0.80;;;;;;;11.31;69.28;95248.47;4940708;29;20036;-80
2022/04/07 00:56:34;;;;;;;0.85;0.85;;;;;;;11.31;68.81;95243.25;4940690;29;20042;-80
2022/04/07 00:59:12;;;;;;;0.90;0.90;;;;;;;11.28;69.43;95241.88;4925586;29;20064;-81
2022/04/07 01:01:51;;;;;;;0.93;0.93;;;;;;;11.30;69.28;95246.84;4940999;29;20040;-81
2022/04/07 01:04:26;;;;;;;4.10;0.70;;;;;;;11.30;68.69;95246.84;4940973;29;20052;-79
2022/04/07 01:07:05;;;;;;;0.55;0.55;;;;;;;11.28;69.48;95236.66;4940947;29;20081;-80
2022/04/07 01:09:40;;;;;;;1.17;0.70;;;;;;;11.29;68.21;95247.88;4941009;29;20063;-80
2022/04/07 01:13:04;;;;;;;0.52;0.52;;;;;;;11.26;70.40;95235.25;4939138;29;20064;-82
2022/04/07 01:15:44;;;;;;;0.68;0.40;;;;;;;11.24;69.12;95230.28;4941133;29;20074;-80
2022/04/07 01:27:03;;;;;;;0.75;0.50;;;;;;;11.14;68.60;95219.53;4961342;28;20062;-79
2022/04/07 01:29:37;;;;;;;0.22;0.22;;;;;;;11.10;68.35;95216.56;4963039;28;20031;-80
2022/04/07 01:32:11;;;;;;;0.40;0.40;;;;;;;11.10;69.72;95207.94;4952831;28;20043;-79
2022/04/07 01:34:54;;;;;;;0.32;0.30;;;;;;;11.12;70.14;95218.97;4943934;29;20043;-78
2022/04/07 01:37:30;;;;;;;0.60;0.50;;;;;;;11.17;69.47;95211.25;4943387;29;20042;-78
2022/04/07 01:43:09;;;;;;;0.43;0.40;;;;;;;11.18;70.25;95212.88;4948280;23;20040;-81
2022/04/07 01:45:43;;;;;;;0.60;0.40;;;;;;;11.18;69.94;95205.03;4944214;29;20096;-81
2022/04/07 01:48:17;;;;;;;0.60;0.60;;;;;;;11.16;69.46;95198.44;4943714;29;20064;-78
2022/04/07 02:12:50;;;;;;;0.85;0.52;;;;;;;11.05;71.33;95172.06;4941705;29;20302;-81
2022/04/07 02:15:19;;;;;;;0.63;0.63;;;;;;;11.04;70.75;95178.31;4943282;28;20582;-81
2022/04/07 02:17:52;;;;;;;1.52;0.70;;;;;;;11.04;71.18;95177.50;4942739;29;20072;-80
2022/04/07 02:20:36;;;;;;;0.57;0.57;;;;;;;11.04;70.60;95170.50;4943200;29;20040;-79
2022/04/07 02:23:08;;;;;;;0.95;0.50;;;;;;;11.04;69.91;95169.66;4943429;29;20076;-79
2022/04/07 02:25:39;;;;;;;0.52;0.52;;;;;;;11.04;70.92;95174.88;4942668;29;20036;-78
2022/04/07 02:28:20;;;;;;;0.60;0.60;;;;;;;11.04;70.04;95154.84;4942660;29;20064;-81
2022/04/07 02:30:51;;;;;;;0.70;0.70;;;;;;;11.05;70.82;95151.19;4942968;29;20051;-81
2022/04/07 02:33:22;;;;;;;0.80;0.80;;;;;;;11.05;70.54;95150.41;4942186;29;20028;-79
2022/04/07 02:35:57;;;;;;;0.85;0.32;;;;;;;11.03;69.19;95165.47;4942636;29;20040;-80
2022/04/07 02:38:27;;;;;;;2.03;0.57;;;;;;;11.03;69.54;95166.28;4942802;29;20051;-79
2022/04/07 02:40:58;;;;;;;0.52;0.52;;;;;;;11.02;68.84;95167.31;4942583;29;20048;-81
2022/04/07 02:43:32;;;;;;;0.30;0.30;;;;;;;11.01;69.31;95168.31;4942820;29;20052;-81
2022/04/07 02:46:06;;;;;;;0.45;0.45;;;;;;;10.99;68.67;95178.16;4942408;29;20060;-81
2022/04/07 02:48:38;;;;;;;;;;;;;;;11.00;68.63;95184.97;4943054;29;20036;-80
2022/04/07 02:51:10;;;;;;;0.85;0.40;;;;;;;10.93;67.98;95172.03;4942647;29;19937;-80
2022/04/07 02:53:42;;;;;;;1.73;0.30;;;;;;;10.88;66.84;95176.28;4942665;29;20028;-79
2022/04/07 02:56:13;;;;;;;0.35;0.35;;;;;;;10.84;67.53;95177.72;4942144;29;20048;-80
2022/04/07 02:58:52;;;;;;;;;;;;;;;10.85;67.15;95181.94;4942882;29;20079;-78
2022/04/07 03:01:29;;;;;;;0.30;0.30;;;;;;;10.79;66.88;95175.00;4942428;29;19929;-80
2022/04/07 03:04:05;;;;;;;0.30;0.30;;;;;;;10.76;66.91;95159.75;4942417;29;20055;-80
2022/04/07 03:06:49;;;;;;;0.40;0.40;;;;;;;10.74;66.39;95162.59;4942126;29;20073;-81
2022/04/07 03:09:32;;;;;;;1.00;0.30;;;;;;;10.70;66.37;95148.41;4926338;29;20062;-79
2022/04/07 03:12:06;;;;;;;0.77;0.40;;;;;;;10.66;66.66;95145.41;4972854;23;20946;-80
2022/04/07 03:14:45;;;;;;;0.50;0.50;;;;;;;10.67;66.69;95156.66;4961745;28;20103;-82
2022/04/07 03:17:15;;;;;;;0.43;0.40;;;;;;;10.65;66.55;95148.28;4961295;28;20100;-80
2022/04/07 03:19:45;;;;;;;0.38;0.35;;;;;;;10.63;66.19;95147.69;4961336;28;20044;-80
2022/04/07 03:22:19;;;;;;;0.60;0.40;;;;;;;10.60;66.82;95143.69;4933814;29;20036;-79
2022/04/07 03:24:52;;;;;;;0.43;0.35;;;;;;;10.58;65.91;95137.88;4941935;29;20063;-80
2022/04/07 03:27:22;;;;;;;0.40;0.40;;;;;;;10.57;66.36;95144.13;5007671;23;20059;-81
2022/04/07 03:29:53;;;;;;;0.68;0.68;;;;;;;10.54;66.24;95134.13;4945336;29;20043;-81
2022/04/07 03:32:22;;;;;;;0.20;0.17;;;;;;;10.55;66.26;95127.91;4945734;29;20062;-81
2022/04/07 03:34:52;;;;;;;0.40;0.35;;;;;;;10.55;65.40;95133.13;4945977;29;20104;-81
2022/04/07 03:37:23;;;;;;;0.30;0.20;;;;;;;10.53;65.21;95127.31;4933631;29;20119;-81
2022/04/07 03:39:52;;;;;;;0.22;0.22;;;;;;;10.50;64.76;95132.97;4926278;29;20072;-81
2022/04/07 03:42:24;;;;;;;2.35;0.70;;;;;;;10.50;64.06;95135.59;4928061;29;20080;-81
2022/04/07 03:44:55;;;;;;;1.10;0.35;;;;;;;10.51;63.94;95131.94;4931110;29;20076;-81
2022/04/07 03:47:24;;;;;;;0.10;0.10;;;;;;;10.52;63.20;95121.31;4932862;29;20112;-81
2022/04/07 03:49:53;;;;;;;0.45;0.20;;;;;;;10.51;62.77;95134.56;4932932;29;20502;-81
2022/04/07 03:52:22;;;;;;;0.38;0.38;;;;;;;10.49;62.94;95136.59;4930564;29;20048;-81
2022/04/07 03:54:53;;;;;;;0.25;0.20;;;;;;;10.49;62.33;95131.38;4929938;29;20088;-81
2022/04/07 03:57:23;;;;;;;0.20;0.20;;;;;;;10.50;63.36;95127.75;4918831;29;20060;-81
2022/04/07 03:59:53;;;;;;;1.73;0.50;;;;;;;10.50;62.33;95120.72;4925631;29;20051;-81
2022/04/07 04:02:24;;;;;;;1.30;0.32;;;;;;;10.54;64.13;95125.50;4926363;29;20460;-81
2022/04/07 04:04:55;;;;;;;0.50;0.50;;;;;;;10.58;62.56;95124.06;4924988;29;20052;-81
2022/04/07 04:07:25;;;;;;;0.73;0.30;;;;;;;10.60;61.87;95117.59;4926329;29;20065;-82
2022/04/07 04:09:53;;;;;;;0.43;0.20;;;;;;;10.59;61.56;95126.47;4940599;29;20056;-81
2022/04/07 04:12:22;;;;;;;0.22;0.20;;;;;;;10.58;61.23;95113.63;4940865;29;20036;-81
2022/04/07 04:14:52;;;;;;;1.33;0.28;;;;;;;10.60;61.61;95112.38;4932814;29;20139;-81
2022/04/07 04:17:20;;;;;;;0.30;0.20;;;;;;;10.62;62.51;95101.75;4925616;29;20108;-81
2022/04/07 04:19:51;;;;;;;0.47;0.22;;;;;;;10.64;62.01;95117.97;4925154;29;20075;-82
2022/04/07 04:22:20;;;;;;;0.20;0.10;;;;;;;10.61;61.68;95103.56;4924573;29;20052;-81
2022/04/07 04:24:49;;;;;;;0.40;0.40;;;;;;;10.59;60.93;95105.59;4925388;29;20123;-81
2022/04/07 04:27:18;;;;;;;0.10;0.10;;;;;;;10.59;60.53;95108.19;4925422;29;20056;-81
2022/04/07 04:29:47;;;;;;;0.35;0.20;;;;;;;10.60;60.60;95091.53;4925685;29;20060;-81
2022/04/07 04:32:17;;;;;;;0.35;0.20;;;;;;;10.61;60.72;95087.13;4924999;29;20048;-81
2022/04/07 04:34:45;;;;;;;0.20;0.20;;;;;;;10.62;60.29;95092.09;4926774;29;20048;-81
2022/04/07 04:37:16;;;;;;;0.45;0.35;;;;;;;10.63;59.98;95098.94;4925243;29;20059;-82
2022/04/07 04:39:45;;;;;;;1.88;0.45;;;;;;;10.64;60.78;95103.13;4925005;29;20517;-82
2022/04/07 04:42:15;;;;;;;0.30;0.20;;;;;;;10.65;60.74;95099.50;4925077;29;20052;-82
2022/04/07 04:44:45;;;;;;;0.20;0.20;;;;;;;10.65;60.36;95091.69;4924997;29;20126;-82
2022/04/07 04:47:17;;;;;;;0.45;0.20;;;;;;;10.68;60.63;95080.03;4925503;29;20059;-82
2022/04/07 04:49:46;;;;;;;0.40;0.32;;;;;;;10.66;61.26;95069.78;4924940;29;20052;-81
2022/04/07 04:52:17;;;;;;;1.23;0.20;;;;;;;10.65;60.85;95068.22;4924695;29;20055;-81
2022/04/07 04:54:46;;;;;;;0.30;0.30;;;;;;;10.65;61.06;95063.00;4925325;29;20048;-82
2022/04/07 04:57:14;;;;;;;0.30;0.30;;;;;;;10.65;60.62;95057.78;4928277;29;20075;-81
2022/04/07 04:59:45;;;;;;;0.82;0.22;;;;;;;10.66;61.62;95056.75;4929070;29;20104;-81
2022/04/07 05:02:13;;;;;;;1.85;0.20;;;;;;;10.67;62.32;95060.97;4928675;29;20048;-82
2022/04/07 05:04:48;;;;;;;0.40;0.30;;;;;;;10.70;62.35;95059.72;4927972;29;20136;-81
2022/04/07 05:07:19;;;;;;;1.60;0.50;;;;;;;10.72;62.60;95071.53;4928898;29;20085;-81
2022/04/07 05:09:48;;;;;;;1.25;0.17;;;;;;;10.70;61.44;95057.13;4932153;29;20052;-81
2022/04/07 05:12:17;;;;;;;0.20;0.20;;;;;;;10.65;61.99;95067.44;4940974;29;20052;-81
2022/04/07 05:14:46;;;;;;;0.70;0.20;;;;;;;10.62;60.80;95058.22;4934117;29;20052;-81
2022/04/07 05:17:15;;;;;;;0.13;0.10;;;;;;;10.58;60.21;95058.88;4930547;29;20083;-81
2022/04/07 05:19:45;;;;;;;0.20;0.10;;;;;;;10.51;61.10;95062.34;4931336;29;20120;-81
2022/04/07 05:22:14;;;;;;;0.30;0.30;;;;;;;10.49;62.37;95064.41;4929351;29;20439;-81
2022/04/07 05:24:45;;;;;;;2.30;0.30;;;;;;;10.49;62.27;95077.44;4926918;29;20082;-81
2022/04/07 05:27:14;;;;;;;0.68;0.40;;;;;;;10.48;61.51;95067.22;4928296;29;20090;-81
2022/04/07 05:29:45;;;;;;;0.50;0.40;;;;;;;10.48;60.86;95064.63;4927684;29;20052;-81
2022/04/07 05:32:13;;;;;;;0.40;0.40;;;;;;;10.46;61.31;95054.41;4927535;29;20052;-81
2022/04/07 05:34:43;;;;;;;1.27;0.43;;;;;;;10.45;61.17;95058.03;4928192;29;20048;-81
2022/04/07 05:37:12;;;;;;;1.23;0.70;;;;;;;10.47;61.65;95060.41;4927558;29;20082;-81
2022/04/07 05:39:42;;;;;;;2.08;0.32;;;;;;;10.46;61.96;95056.22;4926720;29;20084;-81
2022/04/07 05:42:12;;;;;;;0.60;0.30;;;;;;;10.45;62.78;95052.00;4927110;29;20139;-81
2022/04/07 05:44:42;;;;;;;1.05;0.60;;;;;;;10.46;61.61;95035.34;4910553;29;20064;-81
2022/04/07 05:47:11;;;;;;;3.63;0.25;;;;;;;10.46;61.25;95043.19;4925896;29;20058;-81
2022/04/07 05:49:41;;;;;;;1.30;0.43;;;;;;;10.45;62.06;95028.53;4926546;29;20048;-81
2022/04/07 05:52:09;;;;;;;2.97;0.50;;;;;;;10.44;61.79;95032.16;4926379;29;20487;-81
2022/04/07 05:54:38;;;;;;;1.02;0.43;;;;;;;10.42;60.95;95021.97;4927677;29;20111;-81
2022/04/07 05:57:07;;;;;;;0.65;0.20;;;;;;;10.39;60.72;95030.22;4926751;29;20558;-81
2022/04/07 05:59:37;;;;;;;0.20;0.20;;;;;;;10.38;62.79;95026.00;4927551;29;20052;-81
2022/04/07 06:02:06;;;;;;;0.40;0.30;;;;;;;10.38;61.61;95025.22;4927687;29;20056;-81
2022/04/07 06:04:38;;;;;;;0.77;0.50;;;;;;;10.35;61.35;95017.84;4927725;29;20134;-82
2022/04/07 06:07:07;;;;;;;0.30;0.20;;;;;;;10.37;61.91;95015.81;4925518;29;20075;-81
2022/04/07 06:09:36;;;;;;;2.47;0.63;;;;;;;10.38;62.47;95015.59;4927263;29;20064;-81
2022/04/07 06:12:05;;;;;;;0.50;0.20;;;;;;;10.36;61.29;95020.22;4926634;29;20052;-81
2022/04/07 06:14:34;;;;;;;0.32;0.20;;;;;;;10.34;61.28;95013.63;4925466;29;20060;-81
2022/04/07 06:17:04;;;;;;;1.35;0.25;;;;;;;10.27;61.32;95024.91;4925511;29;20051;-81
2022/04/07 06:19:33;;;;;;;0.57;0.20;;;;;;;10.25;62.21;95026.13;4926085;29;20082;-81
2022/04/07 06:22:05;;;;;;;0.95;0.30;;;;;;;10.28;61.77;95020.50;4925549;29;20058;-81
2022/04/07 06:24:33;;;;;;;0.83;0.30;;;;;;;10.30;61.88;95014.09;4925582;29;20075;-81
2022/04/07 06:27:01;;;;;;;0.38;0.38;;;;;;;10.35;62.31;95002.22;4925952;29;20347;-81
2022/04/07 06:29:30;;;;;;;0.90;0.35;;;;;;;10.35;62.92;95000.41;4925415;29;20071;-81
2022/04/07 06:31:59;;;;;;;2.15;0.20;;;;;;;10.36;63.07;95003.78;4925538;29;20582;-82
2022/04/07 06:34:30;;;;;;;1.00;0.30;;;;;;;10.36;63.30;95001.97;4925171;29;20139;-82
2022/04/07 06:37:00;;;;;;;0.70;0.50;;;;;;;10.35;62.36;94987.38;4925307;29;20060;-81
2022/04/07 06:39:28;;;;;;;1.05;0.25;;;;;;;10.35;61.81;94974.34;4927118;29;20077;-81
2022/04/07 06:41:57;;;;;;;0.70;0.30;;;;;;;10.35;61.77;94966.50;4924997;29;20138;-82
2022/04/07 06:44:26;;;;;;;2.92;0.30;;;;;;;10.36;62.06;94969.91;4925573;29;20059;-81
2022/04/07 06:46:54;;;;;;;0.50;0.30;;;;;;;10.40;61.37;94965.84;4926741;29;20058;-81
2022/04/07 06:49:23;;;;;;;0.55;0.35;;;;;;;10.42;61.17;94956.00;4917211;29;20108;-81
2022/04/07 06:51:53;;;;;;;1.60;0.32;;;;;;;10.46;62.91;94954.53;4924246;29;20062;-81
2022/04/07 06:54:22;;;;;;;1.38;0.30;;;;;;;10.49;61.54;94952.31;4926017;29;20052;-82
2022/04/07 06:56:51;;;;;;;0.65;0.20;;;;;;;10.54;62.53;94922.97;4924986;29;20485;-82
2022/04/07 06:59:19;;;;;;;0.22;0.22;;;;;;;10.65;62.87;94916.97;4925532;29;20083;-82
2022/04/07 07:01:48;;;;;;;0.43;0.30;;;;;;;10.74;61.25;94914.84;4926936;29;20076;-81
2022/04/07 07:04:18;;;;;;;0.85;0.47;;;;;;;10.79;60.86;94919.38;4926072;29;20052;-81
2022/04/07 07:06:47;;;;;;;0.30;0.30;;;;;;;10.88;61.24;94902.38;4925358;29;20056;-81
2022/04/07 07:09:17;;;;;;;0.82;0.30;;;;;;;10.96;60.56;94909.09;4927000;29;20055;-82
2022/04/07 07:11:47;;;;;;;0.47;0.45;;;;;;;11.01;60.17;94920.44;4925924;29;20427;-81
2022/04/07 07:14:17;;;;;;;0.13;0.13;;;;;;;11.06;60.63;94915.34;4927656;29;20065;-82
2022/04/07 07:16:47;;;;;;;0.50;0.45;;;;;;;11.05;58.96;94924.19;4926323;29;20060;-81
2022/04/07 07:19:18;;;;;;;0.93;0.10;;;;;;;11.05;59.69;94921.56;4927826;29;20060;-81
2022/04/07 07:21:47;;;;;;;0.47;0.10;;;;;;;11.04;59.57;94921.78;4925702;29;20077;-82
2022/04/07 07:24:18;;;;;;;0.20;0.13;;;;;;;11.03;58.94;94907.97;4925874;29;20086;-82
2022/04/07 07:26:47;;;;;;;1.33;0.30;;;;;;;11.07;59.47;94906.50;4926227;29;20052;-81
2022/04/07 07:29:17;;;;;;;0.25;0.17;;;;;;;11.11;59.82;94909.44;4925997;29;20059;-81
2022/04/07 07:31:46;;;;;;;0.55;0.20;;;;;;;11.13;59.33;94910.81;4927719;29;20043;-82
2022/04/07 07:34:16;;;;;;;0.98;0.35;;;;;;;11.17;59.96;94897.28;4927527;29;20076;-81
2022/04/07 07:36:45;;;;;;;1.50;0.25;;;;;;;11.19;59.68;94900.47;4927034;29;20048;-81
2022/04/07 07:39:14;;;;;;;2.55;0.20;;;;;;;11.18;59.00;94904.91;4926141;29;20052;-81
2022/04/07 07:41:47;;;;;;;0.10;0.10;;;;;;;11.16;58.26;94891.28;4928058;29;20093;-81
2022/04/07 07:44:18;;;;;;;1.70;0.15;;;;;;;11.15;58.75;94889.72;4926860;29;20058;-81
2022/04/07 07:46:47;;;;;;;2.22;0.22;;;;;;;11.15;58.02;94881.88;4926788;29;20161;-81
2022/04/07 07:49:16;;;;;;;0.20;0.20;;;;;;;11.18;58.42;94894.47;4927189;29;20056;-81
2022/04/07 07:51:47;;;;;;;0.10;0.05;;;;;;;11.24;57.80;94885.72;4940749;29;20048;-81
2022/04/07 07:54:16;;;;;;;0.25;0.15;;;;;;;11.34;57.84;94877.31;4941253;29;20099;-81
2022/04/07 07:56:47;;;;;;;0.45;0.30;;;;;;;11.44;57.24;94867.09;4936914;29;20052;-81
2022/04/07 07:59:20;;;;;;;0.22;0.20;;;;;;;11.52;57.64;94864.16;4927378;29;20078;-82
2022/04/07 08:01:49;;;;;;;0.40;0.10;;;;;;;11.59;56.87;94855.38;4925868;29;20071;-82
2022/04/07 08:04:18;;;;;;;0.52;0.10;;;;;;;11.68;58.09;94854.78;4926392;29;20051;-82
2022/04/07 08:06:51;;;;;;;0.38;0.17;;;;;;;11.78;56.33;94858.63;4925346;29;20308;-82
2022/04/07 08:09:21;;;;;;;1.25;0.13;;;;;;;11.85;57.25;94861.88;4925730;29;20139;-82
2022/04/07 08:11:53;;;;;;;1.20;0.10;;;;;;;11.90;56.68;94859.41;4926457;29;20044;-81
2022/04/07 08:14:24;;;;;;;0.75;0.45;;;;;;;11.99;55.99;94865.06;4927272;29;20132;-81
2022/04/07 08:16:57;;;;;;;0.68;0.10;;;;;;;12.04;55.51;94873.00;4926610;29;20060;-81
2022/04/07 08:19:26;;;;;;;0.50;0.20;;;;;;;12.10;55.57;94866.84;4926960;29;20064;-81
2022/04/07 08:21:55;;;;;;;0.40;0.10;;;;;;;12.16;56.24;94864.09;4927507;29;20123;-82
2022/04/07 08:24:25;;;;;;;2.20;0.10;;;;;;;12.24;55.60;94865.50;4927903;29;20475;-81
2022/04/07 08:26:56;;;;;;;2.47;0.10;;;;;;;12.32;55.00;94859.13;4911631;29;20074;-81
2022/04/07 08:29:26;;;;;;;0.40;0.10;;;;;;;12.35;55.48;94849.00;4927722;29;20055;-81
2022/04/07 08:31:55;;;;;;;0.20;0.13;;;;;;;12.39;55.66;94856.38;4930545;29;20063;-82
2022/04/07 08:34:25;;;;;;;0.20;0.20;;;;;;;12.41;56.28;94872.63;4931760;29;20487;-82
2022/04/07 08:36:56;;;;;;;0.40;0.20;;;;;;;12.43;56.01;94857.47;4931472;29;20052;-81
2022/04/07 08:39:27;;;;;;;0.98;0.20;;;;;;;12.41;55.47;94852.47;4933555;29;20066;-81
2022/04/07 08:41:59;;;;;;;0.30;0.10;;;;;;;12.39;55.17;94851.13;4915799;29;20060;-82
2022/04/07 08:44:32;;;;;;;0.20;0.10;;;;;;;12.37;55.90;94825.22;4932250;29;20063;-82
2022/04/07 08:47:03;;;;;;;0.32;0.20;;;;;;;12.37;56.30;94838.28;4932832;29;20052;-81
2022/04/07 08:49:37;;;;;;;0.93;0.10;;;;;;;12.40;56.50;94816.09;4932930;29;20423;-82
2022/04/07 08:52:09;;;;;;;0.47;0.10;;;;;;;12.43;55.58;94810.41;4932702;29;20109;-81
2022/04/07 08:54:39;;;;;;;;;;;;;;;12.45;55.72;94811.75;4933754;29;20056;-82
2022/04/07 08:57:12;;;;;;;0.63;0.30;;;;;;;12.47;55.46;94814.16;4916277;29;20358;-82
2022/04/07 08:59:42;;;;;;;0.35;0.20;;;;;;;12.46;54.93;94804.69;4932833;29;20060;-83
2022/04/07 09:02:13;;;;;;;0.73;0.10;;;;;;;12.45;54.50;94797.91;4933032;29;20048;-82
2022/04/07 09:04:44;;;;;;;4.50;0.10;;;;;;;12.43;54.98;94810.41;4933073;29;20056;-82
2022/04/07 09:07:15;;;;;;;0.43;0.10;;;;;;;12.43;55.16;94784.25;4932376;29;20083;-81
2022/04/07 09:09:44;;;;;;;0.63;0.15;;;;;;;12.46;55.08;94789.81;4932199;29;20056;-81
2022/04/07 09:12:26;;;;;;;4.75;0.45;;;;;;;12.47;54.09;94790.63;4931820;29;20048;-81
2022/04/07 09:14:59;;;;;;;2.63;0.32;;;;;;;12.47;54.13;94790.63;4932460;29;20135;-82
2022/04/07 09:17:31;;;;;;;1.65;0.22;;;;;;;12.51;54.36;94778.66;4940708;29;20040;-81
2022/04/07 09:20:09;;;;;;;1.08;0.30;;;;;;;12.59;54.29;94778.22;4933478;29;20052;-81
2022/04/07 09:22:40;;;;;;;0.60;0.13;;;;;;;12.80;54.50;94789.00;4932479;29;20059;-81
2022/04/07 09:25:13;;;;;;;1.42;0.10;;;;;;;12.90;54.02;94762.97;4933600;29;20055;-82
2022/04/07 09:27:49;;;;;;;0.28;0.20;;;;;;;13.03;53.01;94746.94;4974291;23;20036;-79
2022/04/07 09:30:18;;;;;;;1.65;0.20;;;;;;;13.29;52.61;94749.88;4962827;28;20036;-80
2022/04/07 09:32:49;;;;;;;2.17;0.28;;;;;;;13.29;51.83;94763.75;4962705;28;20111;-79
2022/04/07 09:35:19;;;;;;;1.27;0.10;;;;;;;13.22;52.05;94744.03;4962835;28;20043;-80
2022/04/07 09:37:49;;;;;;;0.30;0.10;;;;;;;13.15;52.33;94741.59;4949652;28;20275;-80
2022/04/07 09:40:19;;;;;;;1.20;0.35;;;;;;;13.15;53.23;94729.28;4943543;29;20034;-80
2022/04/07 09:42:58;;;;;;;0.60;0.10;;;;;;;13.12;51.94;94742.09;4943587;29;20518;-80
2022/04/07 09:45:30;;;;;;;0.20;0.20;;;;;;;13.06;52.44;94735.97;4943378;29;20032;-80
2022/04/07 09:48:19;;;;;;;0.35;0.10;;;;;;;13.13;52.89;94707.78;4943704;29;20078;-81
2022/04/07 09:51:03;;;;;;;0.10;0.10;;;;;;;13.18;53.16;94720.97;4943431;29;20048;-80
2022/04/07 09:53:37;;;;;;;1.30;0.32;;;;;;;13.19;52.62;94709.44;4941971;29;20056;-80
2022/04/07 09:56:07;;;;;;;0.65;0.30;;;;;;;13.20;52.33;94704.97;4943089;29;20060;-80
2022/04/07 09:58:41;;;;;;;2.28;0.20;;;;;;;13.20;52.94;94703.16;4943397;29;20071;-80
2022/04/07 10:01:11;;;;;;;0.20;0.20;;;;;;;13.22;53.23;94709.97;4943164;29;20056;-80
2022/04/07 10:03:42;;;;;;;0.25;0.10;;;;;;;13.22;52.86;94718.63;4943542;29;20063;-80
2022/04/07 10:06:14;;;;;;;0.82;0.15;;;;;;;13.23;53.60;94715.00;4943170;29;20040;-80
2022/04/07 10:08:44;;;;;;;0.20;0.10;;;;;;;13.19;53.74;94685.88;4943011;29;20048;-80
2022/04/07 10:11:12;;;;;;;0.63;0.20;;;;;;;13.20;55.02;94692.69;4943209;29;20268;-79
2022/04/07 10:13:45;;;;;;;0.15;0.10;;;;;;;13.15;54.59;94710.94;4942924;29;20047;-80
2022/04/07 10:16:36;;;;;;;0.85;0.40;;;;;;;13.13;55.86;94702.56;4937167;29;20036;-82
2022/04/07 10:19:15;;;;;;;0.20;0.10;;;;;;;13.11;55.66;94691.53;4943793;29;20032;-83
2022/04/07 10:22:01;;;;;;;1.95;0.10;;;;;;;13.06;56.66;94694.09;4943465;29;20043;-84
2022/04/07 10:24:35;;;;;;;0.55;0.22;;;;;;;13.00;56.85;94684.59;4943532;29;20036;-82
2022/04/07 10:27:29;;;;;;;0.85;0.20;;;;;;;13.00;58.11;94681.97;4943288;29;20060;-83
2022/04/07 10:30:10;;;;;;;0.55;0.43;;;;;;;12.99;57.11;94667.31;4942755;29;20032;-83
2022/04/07 10:32:56;;;;;;;1.35;0.20;;;;;;;12.93;57.53;94663.84;4943408;29;20036;-83
2022/04/07 10:35:37;;;;;;;0.93;0.20;;;;;;;12.89;56.78;94643.66;4943304;28;20083;-83
2022/04/07 10:38:10;;;;;;;0.75;0.20;;;;;;;12.85;56.35;94650.41;4943219;29;20040;-83
2022/04/07 10:40:51;;;;;;;0.90;0.20;;;;;;;12.87;56.74;94650.94;4943358;29;20032;-83
2022/04/07 10:43:25;;;;;;;0.30;0.20;;;;;;;12.87;55.82;94643.09;4943047;29;20333;-83
2022/04/07 10:46:14;;;;;;;0.68;0.25;;;;;;;12.87;55.46;94632.63;4943107;29;20060;-83
2022/04/07 10:48:51;;;;;;;0.10;0.10;;;;;;;12.91;55.04;94608.34;4943243;29;20040;-83
2022/04/07 10:51:41;;;;;;;0.80;0.20;;;;;;;12.96;54.74;94615.47;4943109;29;20068;-83
2022/04/07 10:54:16;;;;;;;1.90;0.20;;;;;;;12.96;54.94;94605.00;4942209;29;20242;-82
2022/04/07 10:56:53;;;;;;;0.20;0.17;;;;;;;12.97;54.14;94598.72;4942893;29;20100;-83
2022/04/07 10:59:27;;;;;;;0.60;0.25;;;;;;;13.01;54.75;94602.44;4942985;29;20084;-83
2022/04/07 11:02:06;;;;;;;0.57;0.40;;;;;;;13.05;53.92;94606.13;4942865;29;20033;-83
2022/04/07 11:05:08;;;;;;;0.77;0.30;;;;;;;13.12;54.30;94591.03;4942749;29;20047;-83
2022/04/07 11:07:54;;;;;;;1.25;0.20;;;;;;;13.14;53.62;94591.59;4933091;29;20040;-83
2022/04/07 11:10:47;;;;;;;0.20;0.13;;;;;;;13.16;52.78;94567.75;4926884;29;20064;-83
2022/04/07 11:13:19;;;;;;;1.42;0.10;;;;;;;13.18;53.75;94569.13;4942556;29;20040;-83
2022/04/07 11:16:03;;;;;;;1.27;0.20;;;;;;;13.18;53.83;94565.69;4942621;29;20044;-83
2022/04/07 11:18:50;;;;;;;0.32;0.13;;;;;;;13.20;52.92;94561.00;4942124;29;20100;-83
2022/04/07 11:21:25;;;;;;;1.75;0.50;;;;;;;13.24;53.07;94584.88;4942566;29;20036;-84
2022/04/07 11:24:07;;;;;;;1.42;0.50;;;;;;;13.27;53.13;94573.88;4942356;29;20040;-84
2022/04/07 11:26:40;;;;;;;1.20;0.30;;;;;;;13.29;53.21;94577.84;4942409;29;20032;-83
2022/04/07 11:29:16;;;;;;;0.77;0.10;;;;;;;13.29;53.20;94572.63;4942266;29;20099;-83
2022/04/07 11:31:50;;;;;;;1.55;0.10;;;;;;;13.31;52.32;94569.75;4942318;29;20043;-83
2022/04/07 11:34:53;;;;;;;2.17;0.05;;;;;;;13.33;52.36;94552.75;4926070;29;20040;-83
2022/04/07 11:37:27;;;;;;;0.25;0.10;;;;;;;13.34;52.09;94570.06;4942247;29;20060;-83
2022/04/07 11:39:59;;;;;;;0.15;0.00;;;;;;;13.38;51.92;94557.25;4942389;29;20060;-83
2022/04/07 11:42:31;;;;;;;0.20;0.03;;;;;;;13.44;51.76;94537.94;4925977;29;20060;-83
2022/04/07 11:45:03;;;;;;;0.00;0.00;;;;;;;13.54;51.99;94542.47;4942207;29;20037;-83
2022/04/07 11:47:36;;;;;;;1.27;0.10;;;;;;;13.65;51.69;94545.97;4942125;29;20044;-82
2022/04/07 11:50:18;;;;;;;2.75;0.10;;;;;;;13.77;51.22;94538.69;4942199;29;20032;-82
2022/04/07 11:52:59;;;;;;;1.75;0.10;;;;;;;13.91;50.97;94520.72;4941963;29;20028;-83
2022/04/07 11:55:37;;;;;;;3.53;0.10;;;;;;;14.06;51.74;94544.38;4942391;29;20036;-82
2022/04/07 11:58:14;;;;;;;1.85;0.03;;;;;;;14.15;50.49;94547.31;4941683;29;20036;-83
2022/04/07 12:00:49;;;;;;;0.38;0.10;;;;;;;14.17;51.02;94521.63;4942089;29;20040;-82
2022/04/07 12:03:24;;;;;;;0.60;0.00;;;;;;;14.18;50.21;94525.81;4942127;29;20060;-84
2022/04/07 12:06:12;;;;;;;0.73;0.05;;;;;;;14.21;50.60;94520.06;4925229;29;20043;-83
2022/04/07 12:08:58;;;;;;;1.20;0.10;;;;;;;14.27;50.00;94529.53;4939865;29;20036;-83
2022/04/07 12:11:33;;;;;;;1.13;0.15;;;;;;;14.33;50.27;94518.03;4941626;29;20032;-83
2022/04/07 12:14:09;;;;;;;3.50;0.10;;;;;;;14.41;49.96;94514.91;4941681;29;20036;-82
2022/04/07 12:16:51;;;;;;;3.22;0.22;;;;;;;14.46;49.42;94521.25;4941861;29;20036;-84
2022/04/07 12:19:26;;;;;;;3.95;0.15;;;;;;;14.45;49.93;94532.75;4942023;29;20048;-83
2022/04/07 12:22:10;;;;;;;5.78;0.45;;;;;;;14.45;49.13;94524.88;4941802;29;20042;-82
2022/04/07 12:25:07;;;;;;;;;;;;;;;14.46;49.86;94495.00;4942053;29;20036;-83
2022/04/07 12:27:48;;;;;;;1.27;0.10;;;;;;;14.46;49.83;94506.28;4941726;29;19931;-83
2022/04/07 12:30:47;;;;;;;46.20;1.83;;;;;;;14.47;49.24;94496.56;4941929;29;20074;-83
2022/04/07 12:33:43;;;;;;;1.35;0.35;;;;;;;14.46;49.31;94502.88;4925579;29;20043;-82
2022/04/07 12:36:35;;;;;;;0.90;0.20;;;;;;;14.47;49.89;94486.06;4925200;29;20042;-84
2022/04/07 12:39:08;;;;;;;12.13;0.22;;;;;;;14.47;48.75;94544.56;4940986;29;20036;-79